sensor_id;sensor_type;location;lat;lon;timestamp;P1;durP1;ratioP1;P2;durP2;ratioP2
39218;SDS011;24934;52.752;6.964;2024-02-26T00:01:40;45.63;;;29.80;;
39218;SDS011;24934;52.752;6.964;2024-02-26T00:04:08;52.57;;;31.43;;
39218;SDS011;24934;52.752;6.964;2024-02-26T00:06:34;45.13;;;30.90;;
39218;SDS011;24934;52.752;6.964;2024-02-26T00:09:00;52.30;;;32.43;;
39218;SDS011;24934;52.752;6.964;2024-02-26T00:11:28;46.07;;;31.60;;
39218;SDS011;24934;52.752;6.964;2024-02-26T00:13:54;51.80;;;31.90;;
39218;SDS011;24934;52.752;6.964;2024-02-26T00:16:20;50.10;;;32.80;;
39218;SDS011;24934;52.752;6.964;2024-02-26T00:18:46;50.10;;;31.20;;
39218;SDS011;24934;52.752;6.964;2024-02-26T00:21:12;53.43;;;32.77;;
39218;SDS011;24934;52.752;6.964;2024-02-26T00:23:38;48.57;;;31.67;;
39218;SDS011;24934;52.752;6.964;2024-02-26T00:26:04;47.83;;;32.83;;
39218;SDS011;24934;52.752;6.964;2024-02-26T00:28:30;51.53;;;32.93;;
39218;SDS011;24934;52.752;6.964;2024-02-26T00:30:56;52.50;;;32.93;;
39218;SDS011;24934;52.752;6.964;2024-02-26T00:33:22;50.20;;;32.60;;
39218;SDS011;24934;52.752;6.964;2024-02-26T00:35:48;56.03;;;35.00;;
39218;SDS011;24934;52.752;6.964;2024-02-26T00:38:14;51.23;;;33.80;;
39218;SDS011;24934;52.752;6.964;2024-02-26T00:40:40;54.70;;;33.60;;
39218;SDS011;24934;52.752;6.964;2024-02-26T00:43:06;52.77;;;33.40;;
39218;SDS011;24934;52.752;6.964;2024-02-26T00:45:32;57.50;;;35.10;;
39218;SDS011;24934;52.752;6.964;2024-02-26T00:47:59;57.60;;;34.83;;
39218;SDS011;24934;52.752;6.964;2024-02-26T00:50:39;53.60;;;35.00;;
39218;SDS011;24934;52.752;6.964;2024-02-26T00:53:05;60.27;;;35.93;;
39218;SDS011;24934;52.752;6.964;2024-02-26T00:55:31;61.87;;;36.70;;
39218;SDS011;24934;52.752;6.964;2024-02-26T00:57:57;59.27;;;35.97;;
39218;SDS011;24934;52.752;6.964;2024-02-26T01:00:24;54.03;;;35.73;;
39218;SDS011;24934;52.752;6.964;2024-02-26T01:02:50;58.20;;;34.47;;
39218;SDS011;24934;52.752;6.964;2024-02-26T01:05:16;59.47;;;36.30;;
39218;SDS011;24934;52.752;6.964;2024-02-26T01:07:42;58.90;;;35.87;;
39218;SDS011;24934;52.752;6.964;2024-02-26T01:10:08;57.97;;;35.80;;
39218;SDS011;24934;52.752;6.964;2024-02-26T01:12:34;56.87;;;35.60;;
39218;SDS011;24934;52.752;6.964;2024-02-26T01:15:01;57.17;;;36.63;;
39218;SDS011;24934;52.752;6.964;2024-02-26T01:17:28;58.93;;;36.57;;
39218;SDS011;24934;52.752;6.964;2024-02-26T01:19:54;56.13;;;36.33;;
39218;SDS011;24934;52.752;6.964;2024-02-26T01:22:20;62.03;;;35.33;;
39218;SDS011;24934;52.752;6.964;2024-02-26T01:24:46;60.30;;;37.70;;
39218;SDS011;24934;52.752;6.964;2024-02-26T01:27:12;61.17;;;36.50;;
39218;SDS011;24934;52.752;6.964;2024-02-26T01:29:40;65.40;;;37.97;;
39218;SDS011;24934;52.752;6.964;2024-02-26T01:32:06;61.00;;;37.97;;
39218;SDS011;24934;52.752;6.964;2024-02-26T01:34:32;58.23;;;37.50;;
39218;SDS011;24934;52.752;6.964;2024-02-26T01:36:58;60.27;;;37.70;;
39218;SDS011;24934;52.752;6.964;2024-02-26T01:39:24;58.23;;;37.37;;
39218;SDS011;24934;52.752;6.964;2024-02-26T01:41:51;60.70;;;37.63;;
39218;SDS011;24934;52.752;6.964;2024-02-26T01:44:17;59.47;;;37.73;;
39218;SDS011;24934;52.752;6.964;2024-02-26T01:46:43;65.73;;;38.67;;
39218;SDS011;24934;52.752;6.964;2024-02-26T01:49:09;58.83;;;37.87;;
39218;SDS011;24934;52.752;6.964;2024-02-26T01:51:37;60.63;;;38.60;;
39218;SDS011;24934;52.752;6.964;2024-02-26T01:54:04;61.50;;;37.57;;
39218;SDS011;24934;52.752;6.964;2024-02-26T01:56:30;63.03;;;38.57;;
39218;SDS011;24934;52.752;6.964;2024-02-26T01:58:57;57.70;;;37.27;;
39218;SDS011;24934;52.752;6.964;2024-02-26T02:01:27;56.87;;;37.53;;
39218;SDS011;24934;52.752;6.964;2024-02-26T02:03:56;61.33;;;37.97;;
39218;SDS011;24934;52.752;6.964;2024-02-26T02:06:23;63.47;;;37.83;;
39218;SDS011;24934;52.752;6.964;2024-02-26T02:08:49;55.57;;;36.50;;
39218;SDS011;24934;52.752;6.964;2024-02-26T02:11:16;62.87;;;38.47;;
39218;SDS011;24934;52.752;6.964;2024-02-26T02:13:42;61.23;;;38.30;;
39218;SDS011;24934;52.752;6.964;2024-02-26T02:16:08;56.67;;;37.60;;
39218;SDS011;24934;52.752;6.964;2024-02-26T02:18:34;60.73;;;37.93;;
39218;SDS011;24934;52.752;6.964;2024-02-26T02:21:00;59.13;;;38.60;;
39218;SDS011;24934;52.752;6.964;2024-02-26T02:23:26;65.90;;;38.97;;
39218;SDS011;24934;52.752;6.964;2024-02-26T02:25:52;65.60;;;39.43;;
39218;SDS011;24934;52.752;6.964;2024-02-26T02:28:20;68.73;;;40.13;;
39218;SDS011;24934;52.752;6.964;2024-02-26T02:30:46;67.40;;;39.93;;
39218;SDS011;24934;52.752;6.964;2024-02-26T02:33:12;66.03;;;39.50;;
39218;SDS011;24934;52.752;6.964;2024-02-26T02:35:40;66.20;;;40.40;;
39218;SDS011;24934;52.752;6.964;2024-02-26T02:38:06;70.97;;;41.27;;
39218;SDS011;24934;52.752;6.964;2024-02-26T02:40:32;69.60;;;40.33;;
39218;SDS011;24934;52.752;6.964;2024-02-26T02:42:58;69.50;;;40.67;;
39218;SDS011;24934;52.752;6.964;2024-02-26T02:45:25;66.63;;;38.83;;
39218;SDS011;24934;52.752;6.964;2024-02-26T02:47:51;72.00;;;39.90;;
39218;SDS011;24934;52.752;6.964;2024-02-26T02:50:17;67.00;;;39.37;;
39218;SDS011;24934;52.752;6.964;2024-02-26T02:52:43;71.77;;;40.10;;
39218;SDS011;24934;52.752;6.964;2024-02-26T02:55:09;69.53;;;40.10;;
39218;SDS011;24934;52.752;6.964;2024-02-26T02:57:35;66.57;;;39.83;;
39218;SDS011;24934;52.752;6.964;2024-02-26T03:00:06;63.57;;;37.57;;
39218;SDS011;24934;52.752;6.964;2024-02-26T03:02:32;66.17;;;38.33;;
39218;SDS011;24934;52.752;6.964;2024-02-26T03:05:00;70.40;;;38.83;;
39218;SDS011;24934;52.752;6.964;2024-02-26T03:07:27;73.00;;;39.17;;
39218;SDS011;24934;52.752;6.964;2024-02-26T03:09:53;71.87;;;39.67;;
39218;SDS011;24934;52.752;6.964;2024-02-26T03:12:19;68.67;;;39.03;;
39218;SDS011;24934;52.752;6.964;2024-02-26T03:14:45;78.27;;;40.90;;
39218;SDS011;24934;52.752;6.964;2024-02-26T03:17:14;75.37;;;40.40;;
39218;SDS011;24934;52.752;6.964;2024-02-26T03:19:40;69.07;;;38.27;;
39218;SDS011;24934;52.752;6.964;2024-02-26T03:22:06;68.43;;;38.67;;
39218;SDS011;24934;52.752;6.964;2024-02-26T03:24:32;68.83;;;38.30;;
39218;SDS011;24934;52.752;6.964;2024-02-26T03:26:58;68.07;;;36.93;;
39218;SDS011;24934;52.752;6.964;2024-02-26T03:29:24;69.37;;;38.73;;
39218;SDS011;24934;52.752;6.964;2024-02-26T03:31:50;70.87;;;38.20;;
39218;SDS011;24934;52.752;6.964;2024-02-26T03:34:16;68.60;;;37.77;;
39218;SDS011;24934;52.752;6.964;2024-02-26T03:36:44;66.53;;;37.07;;
39218;SDS011;24934;52.752;6.964;2024-02-26T03:39:10;72.37;;;38.93;;
39218;SDS011;24934;52.752;6.964;2024-02-26T03:41:36;64.27;;;36.30;;
39218;SDS011;24934;52.752;6.964;2024-02-26T03:44:02;73.40;;;38.97;;
39218;SDS011;24934;52.752;6.964;2024-02-26T03:46:29;71.07;;;37.60;;
39218;SDS011;24934;52.752;6.964;2024-02-26T03:48:55;70.70;;;36.87;;
39218;SDS011;24934;52.752;6.964;2024-02-26T03:51:21;69.17;;;37.73;;
39218;SDS011;24934;52.752;6.964;2024-02-26T03:53:47;69.57;;;37.97;;
39218;SDS011;24934;52.752;6.964;2024-02-26T03:56:13;73.17;;;37.03;;
39218;SDS011;24934;52.752;6.964;2024-02-26T03:58:39;74.97;;;38.27;;
39218;SDS011;24934;52.752;6.964;2024-02-26T04:01:07;74.87;;;37.50;;
39218;SDS011;24934;52.752;6.964;2024-02-26T04:03:33;73.93;;;38.80;;
39218;SDS011;24934;52.752;6.964;2024-02-26T04:05:59;76.00;;;39.47;;
39218;SDS011;24934;52.752;6.964;2024-02-26T04:08:25;74.83;;;38.90;;
39218;SDS011;24934;52.752;6.964;2024-02-26T04:10:51;76.37;;;40.50;;
39218;SDS011;24934;52.752;6.964;2024-02-26T04:13:17;77.77;;;40.93;;
39218;SDS011;24934;52.752;6.964;2024-02-26T04:15:43;81.17;;;40.93;;
39218;SDS011;24934;52.752;6.964;2024-02-26T04:18:09;79.50;;;41.20;;
39218;SDS011;24934;52.752;6.964;2024-02-26T04:20:35;81.43;;;41.30;;
39218;SDS011;24934;52.752;6.964;2024-02-26T04:23:02;85.90;;;43.67;;
39218;SDS011;24934;52.752;6.964;2024-02-26T04:25:28;94.00;;;46.73;;
39218;SDS011;24934;52.752;6.964;2024-02-26T04:27:54;93.83;;;46.67;;
39218;SDS011;24934;52.752;6.964;2024-02-26T04:30:20;101.83;;;48.63;;
39218;SDS011;24934;52.752;6.964;2024-02-26T04:32:46;99.53;;;47.93;;
39218;SDS011;24934;52.752;6.964;2024-02-26T04:35:12;101.93;;;48.30;;
39218;SDS011;24934;52.752;6.964;2024-02-26T04:37:38;107.20;;;50.30;;
39218;SDS011;24934;52.752;6.964;2024-02-26T04:40:04;105.13;;;49.57;;
39218;SDS011;24934;52.752;6.964;2024-02-26T04:42:31;117.30;;;51.07;;
39218;SDS011;24934;52.752;6.964;2024-02-26T04:44:57;110.83;;;49.53;;
39218;SDS011;24934;52.752;6.964;2024-02-26T04:47:23;109.93;;;49.53;;
39218;SDS011;24934;52.752;6.964;2024-02-26T04:49:49;107.77;;;48.80;;
39218;SDS011;24934;52.752;6.964;2024-02-26T04:52:15;108.60;;;48.47;;
39218;SDS011;24934;52.752;6.964;2024-02-26T04:54:41;99.97;;;47.80;;
39218;SDS011;24934;52.752;6.964;2024-02-26T04:57:07;104.87;;;47.30;;
39218;SDS011;24934;52.752;6.964;2024-02-26T04:59:33;101.80;;;47.73;;
39218;SDS011;24934;52.752;6.964;2024-02-26T05:01:59;105.63;;;48.60;;
39218;SDS011;24934;52.752;6.964;2024-02-26T05:04:25;104.60;;;47.67;;
39218;SDS011;24934;52.752;6.964;2024-02-26T05:06:51;100.23;;;47.27;;
39218;SDS011;24934;52.752;6.964;2024-02-26T05:09:18;101.87;;;47.37;;
39218;SDS011;24934;52.752;6.964;2024-02-26T05:11:45;106.57;;;47.03;;
39218;SDS011;24934;52.752;6.964;2024-02-26T05:14:11;104.93;;;47.53;;
39218;SDS011;24934;52.752;6.964;2024-02-26T05:16:37;106.70;;;47.30;;
39218;SDS011;24934;52.752;6.964;2024-02-26T05:19:03;107.70;;;48.23;;
39218;SDS011;24934;52.752;6.964;2024-02-26T05:21:29;102.57;;;46.93;;
39218;SDS011;24934;52.752;6.964;2024-02-26T05:23:55;103.53;;;47.73;;
39218;SDS011;24934;52.752;6.964;2024-02-26T05:26:24;102.67;;;46.50;;
39218;SDS011;24934;52.752;6.964;2024-02-26T05:28:50;97.47;;;45.80;;
39218;SDS011;24934;52.752;6.964;2024-02-26T05:31:16;109.03;;;47.03;;
39218;SDS011;24934;52.752;6.964;2024-02-26T05:33:43;101.47;;;46.27;;
39218;SDS011;24934;52.752;6.964;2024-02-26T05:36:09;103.03;;;47.10;;
39218;SDS011;24934;52.752;6.964;2024-02-26T05:38:35;103.87;;;45.33;;
39218;SDS011;24934;52.752;6.964;2024-02-26T05:41:01;100.63;;;44.87;;
39218;SDS011;24934;52.752;6.964;2024-02-26T05:43:27;103.50;;;44.97;;
39218;SDS011;24934;52.752;6.964;2024-02-26T05:45:53;99.80;;;45.43;;
39218;SDS011;24934;52.752;6.964;2024-02-26T05:48:19;89.87;;;43.40;;
39218;SDS011;24934;52.752;6.964;2024-02-26T05:50:46;89.80;;;43.87;;
39218;SDS011;24934;52.752;6.964;2024-02-26T05:53:12;96.03;;;44.07;;
39218;SDS011;24934;52.752;6.964;2024-02-26T05:55:38;86.27;;;42.87;;
39218;SDS011;24934;52.752;6.964;2024-02-26T05:58:04;89.83;;;43.90;;
39218;SDS011;24934;52.752;6.964;2024-02-26T06:00:30;83.47;;;41.57;;
39218;SDS011;24934;52.752;6.964;2024-02-26T06:02:56;85.23;;;43.00;;
39218;SDS011;24934;52.752;6.964;2024-02-26T06:05:22;84.93;;;40.43;;
39218;SDS011;24934;52.752;6.964;2024-02-26T06:07:48;74.10;;;38.27;;
39218;SDS011;24934;52.752;6.964;2024-02-26T06:10:15;78.13;;;40.80;;
39218;SDS011;24934;52.752;6.964;2024-02-26T06:12:41;77.03;;;38.87;;
39218;SDS011;24934;52.752;6.964;2024-02-26T06:15:07;73.57;;;38.40;;
39218;SDS011;24934;52.752;6.964;2024-02-26T06:17:34;72.10;;;38.47;;
39218;SDS011;24934;52.752;6.964;2024-02-26T06:20:00;66.23;;;37.00;;
39218;SDS011;24934;52.752;6.964;2024-02-26T06:22:26;64.80;;;36.57;;
39218;SDS011;24934;52.752;6.964;2024-02-26T06:24:52;63.60;;;36.73;;
39218;SDS011;24934;52.752;6.964;2024-02-26T06:27:18;62.20;;;34.30;;
39218;SDS011;24934;52.752;6.964;2024-02-26T06:29:46;55.50;;;33.70;;
39218;SDS011;24934;52.752;6.964;2024-02-26T06:32:13;60.63;;;34.23;;
39218;SDS011;24934;52.752;6.964;2024-02-26T06:34:39;57.80;;;33.67;;
39218;SDS011;24934;52.752;6.964;2024-02-26T06:37:06;53.10;;;31.73;;
39218;SDS011;24934;52.752;6.964;2024-02-26T06:39:32;54.10;;;32.67;;
39218;SDS011;24934;52.752;6.964;2024-02-26T06:41:58;51.03;;;31.93;;
39218;SDS011;24934;52.752;6.964;2024-02-26T06:44:27;54.10;;;31.97;;
39218;SDS011;24934;52.752;6.964;2024-02-26T06:46:59;46.90;;;31.27;;
39218;SDS011;24934;52.752;6.964;2024-02-26T06:49:27;47.37;;;31.90;;
39218;SDS011;24934;52.752;6.964;2024-02-26T06:51:53;48.30;;;31.20;;
39218;SDS011;24934;52.752;6.964;2024-02-26T06:54:19;45.37;;;30.93;;
39218;SDS011;24934;52.752;6.964;2024-02-26T06:56:45;47.30;;;30.73;;
39218;SDS011;24934;52.752;6.964;2024-02-26T06:59:12;45.37;;;30.23;;
39218;SDS011;24934;52.752;6.964;2024-02-26T07:01:40;44.17;;;30.87;;
39218;SDS011;24934;52.752;6.964;2024-02-26T07:04:06;44.80;;;31.00;;
39218;SDS011;24934;52.752;6.964;2024-02-26T07:06:32;46.10;;;29.93;;
39218;SDS011;24934;52.752;6.964;2024-02-26T07:08:58;39.97;;;28.63;;
39218;SDS011;24934;52.752;6.964;2024-02-26T07:11:23;40.03;;;29.10;;
39218;SDS011;24934;52.752;6.964;2024-02-26T07:13:49;43.13;;;28.83;;
39218;SDS011;24934;52.752;6.964;2024-02-26T07:16:15;40.57;;;29.23;;
39218;SDS011;24934;52.752;6.964;2024-02-26T07:18:41;39.70;;;27.93;;
39218;SDS011;24934;52.752;6.964;2024-02-26T07:21:11;40.17;;;28.37;;
39218;SDS011;24934;52.752;6.964;2024-02-26T07:23:37;43.30;;;29.40;;
39218;SDS011;24934;52.752;6.964;2024-02-26T07:26:03;40.73;;;28.50;;
39218;SDS011;24934;52.752;6.964;2024-02-26T07:28:29;37.97;;;27.20;;
39218;SDS011;24934;52.752;6.964;2024-02-26T07:30:55;42.40;;;27.63;;
39218;SDS011;24934;52.752;6.964;2024-02-26T07:33:21;41.03;;;29.07;;
39218;SDS011;24934;52.752;6.964;2024-02-26T07:35:47;36.97;;;27.63;;
39218;SDS011;24934;52.752;6.964;2024-02-26T07:38:14;37.17;;;26.60;;
39218;SDS011;24934;52.752;6.964;2024-02-26T07:40:40;37.17;;;27.10;;
39218;SDS011;24934;52.752;6.964;2024-02-26T07:43:06;37.43;;;27.10;;
39218;SDS011;24934;52.752;6.964;2024-02-26T07:45:32;35.50;;;26.07;;
39218;SDS011;24934;52.752;6.964;2024-02-26T07:47:58;35.00;;;26.47;;
39218;SDS011;24934;52.752;6.964;2024-02-26T07:50:24;34.53;;;25.77;;
39218;SDS011;24934;52.752;6.964;2024-02-26T07:52:50;34.03;;;24.43;;
39218;SDS011;24934;52.752;6.964;2024-02-26T07:55:17;33.90;;;24.53;;
39218;SDS011;24934;52.752;6.964;2024-02-26T07:57:44;32.00;;;24.47;;
39218;SDS011;24934;52.752;6.964;2024-02-26T08:00:10;31.43;;;24.10;;
39218;SDS011;24934;52.752;6.964;2024-02-26T08:02:36;33.23;;;23.97;;
39218;SDS011;24934;52.752;6.964;2024-02-26T08:05:02;30.43;;;22.80;;
39218;SDS011;24934;52.752;6.964;2024-02-26T08:07:32;31.83;;;23.33;;
39218;SDS011;24934;52.752;6.964;2024-02-26T08:09:58;31.47;;;23.10;;
39218;SDS011;24934;52.752;6.964;2024-02-26T08:12:24;31.53;;;22.60;;
39218;SDS011;24934;52.752;6.964;2024-02-26T08:14:50;30.13;;;22.23;;
39218;SDS011;24934;52.752;6.964;2024-02-26T08:17:16;30.43;;;22.83;;
39218;SDS011;24934;52.752;6.964;2024-02-26T08:19:42;28.03;;;22.17;;
39218;SDS011;24934;52.752;6.964;2024-02-26T08:22:08;32.70;;;22.43;;
39218;SDS011;24934;52.752;6.964;2024-02-26T08:24:40;26.80;;;22.10;;
39218;SDS011;24934;52.752;6.964;2024-02-26T08:27:07;28.13;;;21.57;;
39218;SDS011;24934;52.752;6.964;2024-02-26T08:29:33;27.60;;;21.30;;
39218;SDS011;24934;52.752;6.964;2024-02-26T08:31:59;27.23;;;20.80;;
39218;SDS011;24934;52.752;6.964;2024-02-26T08:34:25;25.83;;;20.83;;
39218;SDS011;24934;52.752;6.964;2024-02-26T08:36:51;23.37;;;20.77;;
39218;SDS011;24934;52.752;6.964;2024-02-26T08:39:17;26.27;;;20.60;;
39218;SDS011;24934;52.752;6.964;2024-02-26T08:41:43;25.10;;;20.37;;
39218;SDS011;24934;52.752;6.964;2024-02-26T08:44:10;23.80;;;20.50;;
39218;SDS011;24934;52.752;6.964;2024-02-26T08:46:36;24.53;;;20.27;;
39218;SDS011;24934;52.752;6.964;2024-02-26T08:49:02;23.83;;;20.73;;
39218;SDS011;24934;52.752;6.964;2024-02-26T08:51:28;25.90;;;20.53;;
39218;SDS011;24934;52.752;6.964;2024-02-26T08:53:54;24.70;;;20.37;;
39218;SDS011;24934;52.752;6.964;2024-02-26T08:56:20;25.13;;;21.13;;
39218;SDS011;24934;52.752;6.964;2024-02-26T08:58:46;27.47;;;21.37;;
39218;SDS011;24934;52.752;6.964;2024-02-26T09:01:14;24.63;;;21.30;;
39218;SDS011;24934;52.752;6.964;2024-02-26T09:03:40;24.53;;;20.43;;
39218;SDS011;24934;52.752;6.964;2024-02-26T09:06:06;28.30;;;21.97;;
39218;SDS011;24934;52.752;6.964;2024-02-26T09:08:32;22.70;;;19.63;;
39218;SDS011;24934;52.752;6.964;2024-02-26T09:10:58;24.77;;;20.00;;
39218;SDS011;24934;52.752;6.964;2024-02-26T09:13:24;22.23;;;19.83;;
39218;SDS011;24934;52.752;6.964;2024-02-26T09:15:50;24.10;;;20.83;;
39218;SDS011;24934;52.752;6.964;2024-02-26T09:18:16;21.63;;;19.13;;
39218;SDS011;24934;52.752;6.964;2024-02-26T09:20:42;23.83;;;20.10;;
39218;SDS011;24934;52.752;6.964;2024-02-26T09:23:08;22.80;;;19.87;;
39218;SDS011;24934;52.752;6.964;2024-02-26T09:25:34;21.60;;;19.40;;
39218;SDS011;24934;52.752;6.964;2024-02-26T09:28:01;22.30;;;19.90;;
39218;SDS011;24934;52.752;6.964;2024-02-26T09:30:27;24.33;;;20.57;;
39218;SDS011;24934;52.752;6.964;2024-02-26T09:32:53;21.50;;;19.27;;
39218;SDS011;24934;52.752;6.964;2024-02-26T09:35:19;22.20;;;19.73;;
39218;SDS011;24934;52.752;6.964;2024-02-26T09:37:46;21.63;;;19.07;;
39218;SDS011;24934;52.752;6.964;2024-02-26T09:40:14;21.87;;;19.53;;
39218;SDS011;24934;52.752;6.964;2024-02-26T09:42:44;20.93;;;18.73;;
39218;SDS011;24934;52.752;6.964;2024-02-26T09:45:12;21.63;;;19.23;;
39218;SDS011;24934;52.752;6.964;2024-02-26T09:47:43;20.67;;;18.53;;
39218;SDS011;24934;52.752;6.964;2024-02-26T09:50:10;20.13;;;18.03;;
39218;SDS011;24934;52.752;6.964;2024-02-26T09:52:38;21.40;;;18.30;;
39218;SDS011;24934;52.752;6.964;2024-02-26T09:55:08;20.57;;;18.57;;
39218;SDS011;24934;52.752;6.964;2024-02-26T09:57:35;20.23;;;18.13;;
39218;SDS011;24934;52.752;6.964;2024-02-26T10:00:03;21.50;;;19.30;;
39218;SDS011;24934;52.752;6.964;2024-02-26T10:02:33;22.00;;;19.77;;
39218;SDS011;24934;52.752;6.964;2024-02-26T10:05:00;21.73;;;19.53;;
39218;SDS011;24934;52.752;6.964;2024-02-26T10:07:30;22.87;;;20.40;;
39218;SDS011;24934;52.752;6.964;2024-02-26T10:09:56;21.80;;;19.70;;
39218;SDS011;24934;52.752;6.964;2024-02-26T10:12:22;21.80;;;19.80;;
39218;SDS011;24934;52.752;6.964;2024-02-26T10:14:50;21.53;;;19.50;;
39218;SDS011;24934;52.752;6.964;2024-02-26T10:17:17;21.93;;;19.70;;
39218;SDS011;24934;52.752;6.964;2024-02-26T10:19:44;21.40;;;19.30;;
39218;SDS011;24934;52.752;6.964;2024-02-26T10:22:13;20.87;;;18.77;;
39218;SDS011;24934;52.752;6.964;2024-02-26T10:24:39;21.47;;;19.37;;
39218;SDS011;24934;52.752;6.964;2024-02-26T10:27:05;21.20;;;19.20;;
39218;SDS011;24934;52.752;6.964;2024-02-26T10:29:31;20.50;;;18.50;;
39218;SDS011;24934;52.752;6.964;2024-02-26T10:31:57;21.07;;;19.07;;
39218;SDS011;24934;52.752;6.964;2024-02-26T10:34:23;20.93;;;18.93;;
39218;SDS011;24934;52.752;6.964;2024-02-26T10:36:50;20.90;;;18.90;;
39218;SDS011;24934;52.752;6.964;2024-02-26T10:39:16;20.80;;;18.90;;
39218;SDS011;24934;52.752;6.964;2024-02-26T10:41:44;19.80;;;18.00;;
39218;SDS011;24934;52.752;6.964;2024-02-26T10:44:10;20.60;;;18.63;;
39218;SDS011;24934;52.752;6.964;2024-02-26T10:46:38;20.20;;;18.40;;
39218;SDS011;24934;52.752;6.964;2024-02-26T10:49:04;20.57;;;18.57;;
39218;SDS011;24934;52.752;6.964;2024-02-26T10:51:33;19.53;;;17.83;;
39218;SDS011;24934;52.752;6.964;2024-02-26T10:54:00;20.20;;;18.40;;
39218;SDS011;24934;52.752;6.964;2024-02-26T10:56:27;20.63;;;18.70;;
39218;SDS011;24934;52.752;6.964;2024-02-26T10:58:54;21.50;;;19.50;;
39218;SDS011;24934;52.752;6.964;2024-02-26T11:01:21;20.37;;;18.57;;
39218;SDS011;24934;52.752;6.964;2024-02-26T11:03:51;19.87;;;18.07;;
39218;SDS011;24934;52.752;6.964;2024-02-26T11:06:18;19.43;;;17.73;;
39218;SDS011;24934;52.752;6.964;2024-02-26T11:08:54;19.63;;;17.90;;
39218;SDS011;24934;52.752;6.964;2024-02-26T11:11:21;20.37;;;18.47;;
39218;SDS011;24934;52.752;6.964;2024-02-26T11:13:47;20.93;;;18.93;;
39218;SDS011;24934;52.752;6.964;2024-02-26T11:16:19;20.63;;;18.73;;
39218;SDS011;24934;52.752;6.964;2024-02-26T11:18:46;21.00;;;19.00;;
39218;SDS011;24934;52.752;6.964;2024-02-26T11:21:16;19.60;;;17.80;;
39218;SDS011;24934;52.752;6.964;2024-02-26T11:23:48;20.57;;;18.57;;
39218;SDS011;24934;52.752;6.964;2024-02-26T11:26:15;19.00;;;17.27;;
39218;SDS011;24934;52.752;6.964;2024-02-26T11:28:42;19.77;;;17.97;;
39218;SDS011;24934;52.752;6.964;2024-02-26T11:31:10;20.23;;;18.43;;
39218;SDS011;24934;52.752;6.964;2024-02-26T11:33:38;20.17;;;18.20;;
39218;SDS011;24934;52.752;6.964;2024-02-26T11:36:11;19.97;;;18.17;;
39218;SDS011;24934;52.752;6.964;2024-02-26T11:38:40;20.63;;;18.70;;
39218;SDS011;24934;52.752;6.964;2024-02-26T11:41:06;20.30;;;18.43;;
39218;SDS011;24934;52.752;6.964;2024-02-26T11:46:24;20.00;;;18.10;;
39218;SDS011;24934;52.752;6.964;2024-02-26T11:48:58;19.93;;;18.03;;
39218;SDS011;24934;52.752;6.964;2024-02-26T11:51:26;20.40;;;18.40;;
39218;SDS011;24934;52.752;6.964;2024-02-26T11:53:52;20.37;;;18.37;;
39218;SDS011;24934;52.752;6.964;2024-02-26T11:58:45;21.07;;;19.00;;
39218;SDS011;24934;52.752;6.964;2024-02-26T12:04:01;20.90;;;18.80;;
39218;SDS011;24934;52.752;6.964;2024-02-26T12:06:27;20.33;;;18.43;;
39218;SDS011;24934;52.752;6.964;2024-02-26T12:08:54;20.87;;;18.77;;
39218;SDS011;24934;52.752;6.964;2024-02-26T12:11:20;20.83;;;18.97;;
39218;SDS011;24934;52.752;6.964;2024-02-26T12:13:49;21.10;;;19.10;;
39218;SDS011;24934;52.752;6.964;2024-02-26T12:16:34;21.57;;;19.47;;
39218;SDS011;24934;52.752;6.964;2024-02-26T12:19:00;21.10;;;19.00;;
39218;SDS011;24934;52.752;6.964;2024-02-26T12:21:29;21.30;;;19.23;;
39218;SDS011;24934;52.752;6.964;2024-02-26T12:23:55;22.13;;;19.90;;
39218;SDS011;24934;52.752;6.964;2024-02-26T12:26:21;21.73;;;19.47;;
39218;SDS011;24934;52.752;6.964;2024-02-26T12:28:47;22.13;;;19.93;;
39218;SDS011;24934;52.752;6.964;2024-02-26T12:31:13;22.63;;;20.33;;
39218;SDS011;24934;52.752;6.964;2024-02-26T12:33:39;21.37;;;19.23;;
39218;SDS011;24934;52.752;6.964;2024-02-26T12:36:05;22.60;;;20.20;;
39218;SDS011;24934;52.752;6.964;2024-02-26T12:38:32;21.87;;;19.60;;
39218;SDS011;24934;52.752;6.964;2024-02-26T12:41:01;21.10;;;19.03;;
39218;SDS011;24934;52.752;6.964;2024-02-26T12:43:27;20.43;;;18.37;;
39218;SDS011;24934;52.752;6.964;2024-02-26T12:45:53;20.90;;;18.90;;
39218;SDS011;24934;52.752;6.964;2024-02-26T12:48:19;20.27;;;18.20;;
39218;SDS011;24934;52.752;6.964;2024-02-26T12:50:49;21.20;;;19.10;;
39218;SDS011;24934;52.752;6.964;2024-02-26T12:53:14;20.70;;;18.70;;
39218;SDS011;24934;52.752;6.964;2024-02-26T12:55:41;22.10;;;19.37;;
39218;SDS011;24934;52.752;6.964;2024-02-26T12:58:07;21.80;;;19.70;;
39218;SDS011;24934;52.752;6.964;2024-02-26T13:00:33;21.73;;;19.43;;
39218;SDS011;24934;52.752;6.964;2024-02-26T13:03:03;21.23;;;19.13;;
39218;SDS011;24934;52.752;6.964;2024-02-26T13:05:29;21.53;;;19.43;;
39218;SDS011;24934;52.752;6.964;2024-02-26T13:07:56;22.17;;;20.03;;
39218;SDS011;24934;52.752;6.964;2024-02-26T13:10:22;21.20;;;19.20;;
39218;SDS011;24934;52.752;6.964;2024-02-26T13:12:49;21.07;;;19.00;;
39218;SDS011;24934;52.752;6.964;2024-02-26T13:15:19;21.50;;;19.40;;
39218;SDS011;24934;52.752;6.964;2024-02-26T13:17:46;22.20;;;20.00;;
39218;SDS011;24934;52.752;6.964;2024-02-26T13:20:12;21.53;;;19.43;;
39218;SDS011;24934;52.752;6.964;2024-02-26T13:22:38;21.73;;;19.63;;
39218;SDS011;24934;52.752;6.964;2024-02-26T13:25:04;21.53;;;19.30;;
39218;SDS011;24934;52.752;6.964;2024-02-26T13:27:33;20.87;;;18.77;;
39218;SDS011;24934;52.752;6.964;2024-02-26T13:30:05;21.23;;;19.13;;
39218;SDS011;24934;52.752;6.964;2024-02-26T13:32:35;21.03;;;18.93;;
39218;SDS011;24934;52.752;6.964;2024-02-26T13:35:11;20.73;;;18.63;;
39218;SDS011;24934;52.752;6.964;2024-02-26T13:37:38;20.93;;;18.80;;
39218;SDS011;24934;52.752;6.964;2024-02-26T13:40:08;20.83;;;18.73;;
39218;SDS011;24934;52.752;6.964;2024-02-26T13:42:35;21.23;;;19.17;;
39218;SDS011;24934;52.752;6.964;2024-02-26T13:45:01;21.00;;;19.00;;
39218;SDS011;24934;52.752;6.964;2024-02-26T13:47:27;20.53;;;18.40;;
39218;SDS011;24934;52.752;6.964;2024-02-26T13:49:53;20.90;;;18.90;;
39218;SDS011;24934;52.752;6.964;2024-02-26T13:52:19;19.97;;;17.97;;
39218;SDS011;24934;52.752;6.964;2024-02-26T13:54:45;21.03;;;19.03;;
39218;SDS011;24934;52.752;6.964;2024-02-26T13:57:11;20.67;;;18.67;;
39218;SDS011;24934;52.752;6.964;2024-02-26T13:59:37;20.47;;;18.47;;
39218;SDS011;24934;52.752;6.964;2024-02-26T14:02:07;20.30;;;18.30;;
39218;SDS011;24934;52.752;6.964;2024-02-26T14:04:33;20.50;;;18.43;;
39218;SDS011;24934;52.752;6.964;2024-02-26T14:06:59;20.93;;;19.00;;
39218;SDS011;24934;52.752;6.964;2024-02-26T14:09:25;20.80;;;18.77;;
39218;SDS011;24934;52.752;6.964;2024-02-26T14:11:51;21.40;;;19.30;;
39218;SDS011;24934;52.752;6.964;2024-02-26T14:14:17;21.00;;;19.03;;
39218;SDS011;24934;52.752;6.964;2024-02-26T14:16:43;21.83;;;19.63;;
39218;SDS011;24934;52.752;6.964;2024-02-26T14:19:09;21.80;;;19.70;;
39218;SDS011;24934;52.752;6.964;2024-02-26T14:21:35;22.67;;;20.57;;
39218;SDS011;24934;52.752;6.964;2024-02-26T14:24:02;22.33;;;20.13;;
39218;SDS011;24934;52.752;6.964;2024-02-26T14:26:28;22.70;;;20.23;;